Aérodrome :
LOGIN :

S'inscrire | Disclaimer

   EN    FR    IT 

 










Légende :    VFR   VFR Marginal   IFR   IFR Intensif   IFR Très Intensif
Visi : 
Plafond : 
>= 8 km
>= 3000ft
5 à 8 km
1000 à 3000 ft
1500m à 5 km
500 à 1000 ft
800 à 1500m
200 à 500 ft
< 800m
< 200 ft
Symboles :   Orages  Brouillard  Fortes neiges  Fortes précipitations  Vent > 20 kt
SIGMETs :   Divers  Orages  Givrage  Turbulence  Onde Orograph.  Cendres Volcan.







- Altitude de l'aérodrome : 65 ft
- Code IATA : PMO


LICJ - Palermo Punta Raisi

DERNIER METAR :
  • 180650Z 10017KT 080V140 CAVOK 25/14 Q1008

METARs EXPIRÉS :
  • 180620Z 11013KT 080V140 CAVOK 24/15 Q1008
  • 180550Z 15005G17KT 080V230 CAVOK 23/14 Q1008
  • 180520Z 07010KT CAVOK 23/14 Q1008
  • 180450Z VRB04KT CAVOK 22/14 Q1008
  • 180420Z 08010KT CAVOK 22/14 Q1008

TAF TAF LICJ
Valide du 18 à 06h jusqu'au 19 à 06h UTC


180500Z 1806/1906 06014KT 9999 SCT050
TEMPO 1808/1815 SHRA
BECMG 1809/1811 19010KT
BECMG 1816/1818 06010KT
Pas de NOTAMs connus pour ce terrain.
1 SIGMET publié pour la FIR Roma (LIRR) :
 
Orages noyés dans la masse
LIRR SIGMET 1 VALID 180407/180800 LIIB
LIRR ROMA FIR EMBD TS FCST WI N3907 E01044 - N4117 E00941 - N4116 E00758 - N4006 E00757 - N3858 E00758 - N3733 E01130 - N3631 E01128 - N3628 E01243 - N3833 E01242 - N3907 E01044 TOP FL390 STNR NC=



MET'MAP, la Météo Aéronautique d'un coup d'oeil ! - Copyright ORBIFLY Décembre 2007 - Disclaimer

ORBIFLY MET'MAP TEAM :

Programmation & Développement : Alexandra Zaïnal
Conception & Développement : Baudouin d'Aumeries
Co-Programmation & Développement : Marc-Olivier Méhu
Soutien technique & logistique : Manuel Goepfert

Contact : metmap@orbifly.com




SOURCES & CREDITS :

   NOAA